createdAt,value
2022-08-23T00:02:29.542Z,2.93
2022-08-23T00:05:08.806Z,2.20
2022-08-23T00:07:46.864Z,2.80
2022-08-23T00:10:17.087Z,2.90
2022-08-23T00:12:45.864Z,2.70
2022-08-23T00:15:16.618Z,2.80
2022-08-23T00:17:43.800Z,2.57
2022-08-23T00:20:13.362Z,3.37
2022-08-23T00:22:42.922Z,2.47
2022-08-23T00:25:11.876Z,3.20
2022-08-23T00:27:39.648Z,2.93
2022-08-23T00:30:09.519Z,2.37
2022-08-23T00:32:38.509Z,2.30
2022-08-23T00:35:09.481Z,2.87
2022-08-23T00:37:39.578Z,2.60
2022-08-23T00:40:12.156Z,3.30
2022-08-23T00:43:12.236Z,2.80
2022-08-23T00:46:45.188Z,2.70
2022-08-23T00:49:14.315Z,2.67
2022-08-23T00:51:52.424Z,2.40
2022-08-23T00:54:23.456Z,2.57
2022-08-23T00:56:51.427Z,2.77
2022-08-23T00:59:18.628Z,2.53
2022-08-23T01:01:48.351Z,2.63
2022-08-23T01:04:17.085Z,3.00
2022-08-23T01:07:07.512Z,2.83
2022-08-23T01:09:41.921Z,2.90
2022-08-23T01:12:15.954Z,2.93
2022-08-23T01:14:55.414Z,3.23
2022-08-23T01:17:29.421Z,2.43
2022-08-23T01:20:09.078Z,2.53
2022-08-23T01:23:10.126Z,2.80
2022-08-23T01:25:38.436Z,2.67
2022-08-23T01:28:05.914Z,2.60
2022-08-23T01:30:36.400Z,2.53
2022-08-23T01:33:06.040Z,2.67
2022-08-23T01:35:43.435Z,2.43
2022-08-23T01:38:11.454Z,2.80
2022-08-23T01:40:39.932Z,2.03
2022-08-23T01:43:07.931Z,2.53
2022-08-23T01:45:35.652Z,2.47
2022-08-23T01:48:06.090Z,2.60
2022-08-23T01:53:05.607Z,2.20
2022-08-23T01:55:33.371Z,2.30
2022-08-23T01:58:02.460Z,2.07
2022-08-23T02:00:39.377Z,2.30
2022-08-23T02:03:07.247Z,2.30
2022-08-23T02:05:35.020Z,2.27
2022-08-23T02:08:21.837Z,2.37
2022-08-23T02:10:48.860Z,2.37
2022-08-23T02:13:16.815Z,1.90
2022-08-23T02:15:51.196Z,2.03
2022-08-23T02:18:20.049Z,1.80
2022-08-23T02:20:52.099Z,2.17
2022-08-23T02:23:20.168Z,1.83
2022-08-23T02:25:47.230Z,2.10
2022-08-23T02:28:14.873Z,1.90
2022-08-23T02:30:41.697Z,2.73
2022-08-23T02:33:08.693Z,2.10
2022-08-23T02:35:35.546Z,2.47
2022-08-23T02:38:07.920Z,2.40
2022-08-23T02:40:35.619Z,1.97
2022-08-23T02:43:03.218Z,2.20
2022-08-23T02:45:30.186Z,2.20
2022-08-23T02:47:57.225Z,2.70
2022-08-23T02:50:27.349Z,1.90
2022-08-23T02:52:55.098Z,2.67
2022-08-23T02:55:22.153Z,2.90
2022-08-23T02:57:51.454Z,2.90
2022-08-23T03:00:19.195Z,2.13
2022-08-23T03:02:46.412Z,2.07
2022-08-23T03:05:14.586Z,2.70
2022-08-23T03:07:41.962Z,2.67
2022-08-23T03:10:10.367Z,2.53
2022-08-23T03:12:41.829Z,3.40
2022-08-23T03:15:09.146Z,2.30
2022-08-23T03:17:36.127Z,2.73
2022-08-23T03:20:04.146Z,2.37
2022-08-23T03:22:30.998Z,2.33
2022-08-23T03:25:00.367Z,2.63
2022-08-23T03:27:31.625Z,3.20
2022-08-23T03:30:09.558Z,2.97
2022-08-23T03:32:49.026Z,2.80
2022-08-23T03:35:16.761Z,2.80
2022-08-23T03:37:43.689Z,2.60
2022-08-23T03:40:11.013Z,2.70
2022-08-23T03:42:37.803Z,2.73
2022-08-23T03:45:05.073Z,2.87
2022-08-23T03:47:31.875Z,2.43
2022-08-23T03:50:01.063Z,3.50
2022-08-23T03:52:27.891Z,2.97
2022-08-23T03:54:54.679Z,2.77
2022-08-23T03:57:21.476Z,3.23
2022-08-23T03:59:48.915Z,2.50
2022-08-23T04:02:16.465Z,3.03
2022-08-23T04:04:43.368Z,3.10
2022-08-23T04:07:10.166Z,2.80
2022-08-23T04:09:37.239Z,3.77
2022-08-23T04:12:04.153Z,3.30
2022-08-23T04:14:39.091Z,3.43
2022-08-23T04:17:06.754Z,3.17
2022-08-23T04:19:33.572Z,3.27
2022-08-23T04:22:01.807Z,3.67
2022-08-23T04:24:31.107Z,4.10
2022-08-23T04:27:00.132Z,3.77
2022-08-23T04:29:33.937Z,3.73
2022-08-23T04:32:05.194Z,3.40
2022-08-23T04:34:36.427Z,3.30
2022-08-23T04:37:09.193Z,3.67
2022-08-23T04:39:57.824Z,3.47
2022-08-23T04:42:25.118Z,4.30
2022-08-23T04:44:54.873Z,3.23
2022-08-23T04:47:21.806Z,3.00
2022-08-23T04:49:48.609Z,3.40
2022-08-23T04:52:19.209Z,2.77
2022-08-23T04:54:46.867Z,4.03
2022-08-23T04:57:15.476Z,2.87
2022-08-23T04:59:43.231Z,3.50
2022-08-23T05:02:10.140Z,3.30
2022-08-23T05:04:36.988Z,3.90
2022-08-23T05:07:04.153Z,3.30
2022-08-23T05:09:31.110Z,3.27
2022-08-23T05:12:00.431Z,2.90
2022-08-23T05:14:27.297Z,4.07
2022-08-23T05:16:54.146Z,3.93
2022-08-23T05:19:21.410Z,3.00
2022-08-23T05:21:48.385Z,4.73
2022-08-23T05:24:15.241Z,2.70
2022-08-23T05:26:42.224Z,3.50
2022-08-23T05:29:11.788Z,3.57
2022-08-23T05:31:38.824Z,3.10
2022-08-23T05:34:05.990Z,3.07
2022-08-23T05:36:33.003Z,3.10
2022-08-23T05:39:02.806Z,2.97
2022-08-23T05:41:37.953Z,4.33
2022-08-23T05:44:08.678Z,3.20
2022-08-23T05:46:38.845Z,3.77
2022-08-23T05:49:08.415Z,4.10
2022-08-23T05:51:35.965Z,3.17
2022-08-23T05:54:08.074Z,2.90
2022-08-23T05:56:39.194Z,3.00
2022-08-23T05:59:12.671Z,3.17
2022-08-23T06:01:40.856Z,3.40
2022-08-23T06:04:12.819Z,3.60
2022-08-23T06:06:45.384Z,3.60
2022-08-23T06:09:15.495Z,2.80
2022-08-23T06:11:44.533Z,3.30
2022-08-23T06:14:12.201Z,3.10
2022-08-23T06:16:44.921Z,3.50
2022-08-23T06:19:12.997Z,3.03
2022-08-23T06:21:40.877Z,2.80
2022-08-23T06:24:10.643Z,3.00
2022-08-23T06:26:41.487Z,3.30
2022-08-23T06:29:17.609Z,3.43
2022-08-23T06:31:47.794Z,3.67
2022-08-23T06:34:33.494Z,3.00
2022-08-23T06:37:12.836Z,3.80
2022-08-23T06:39:39.760Z,3.03
2022-08-23T06:42:37.408Z,4.90
2022-08-23T06:45:02.342Z,3.33
2022-08-23T06:47:29.189Z,2.80
2022-08-23T06:50:00.617Z,4.43
2022-08-23T06:52:29.735Z,2.43
2022-08-23T06:54:57.703Z,2.50
2022-08-23T06:57:25.021Z,3.40
2022-08-23T06:59:51.791Z,3.00
2022-08-23T07:02:21.025Z,2.70
2022-08-23T07:04:53.778Z,2.57
2022-08-23T07:07:20.925Z,2.37
2022-08-23T07:09:48.155Z,2.33
2022-08-23T07:12:19.815Z,2.70
2022-08-23T07:14:49.477Z,2.30
2022-08-23T07:17:18.420Z,2.20
2022-08-23T07:19:47.635Z,2.30
2022-08-23T07:22:17.109Z,2.70
2022-08-23T07:24:46.136Z,2.60
2022-08-23T07:27:13.012Z,2.87
2022-08-23T07:29:40.004Z,3.03
2022-08-23T07:32:07.701Z,3.20
2022-08-23T07:34:36.937Z,4.00
2022-08-23T07:37:04.978Z,3.03
2022-08-23T07:39:38.618Z,2.33
2022-08-23T07:42:23.576Z,2.40
2022-08-23T07:44:52.667Z,2.97
2022-08-23T07:47:20.654Z,1.90
2022-08-23T07:49:50.126Z,1.90
2022-08-23T07:52:17.272Z,2.40
2022-08-23T07:54:48.508Z,2.10
2022-08-23T07:57:16.507Z,2.17
2022-08-23T07:59:43.318Z,2.27
2022-08-23T08:02:10.286Z,2.37
2022-08-23T08:04:37.541Z,2.13
2022-08-23T08:07:18.913Z,2.00
2022-08-23T08:09:47.309Z,2.33
2022-08-23T08:12:14.225Z,1.80
2022-08-23T08:14:42.221Z,2.53
2022-08-23T08:17:09.848Z,2.03
2022-08-23T08:19:38.963Z,1.80
2022-08-23T08:22:05.749Z,1.90
2022-08-23T08:24:32.616Z,2.07
2022-08-23T08:26:59.728Z,1.90
2022-08-23T08:29:29.003Z,1.60
2022-08-23T08:31:56.529Z,1.97
2022-08-23T08:34:23.544Z,1.43
2022-08-23T08:36:58.379Z,1.63
2022-08-23T08:39:31.057Z,1.60
2022-08-23T08:42:24.531Z,1.90
2022-08-23T08:45:15.227Z,1.70
2022-08-23T08:48:06.829Z,1.90
2022-08-23T08:50:41.459Z,2.63
2022-08-23T08:53:19.543Z,1.83
2022-08-23T08:55:51.743Z,1.90
2022-08-23T08:58:36.656Z,1.90
2022-08-23T09:01:03.569Z,1.73
2022-08-23T09:03:34.732Z,2.73
2022-08-23T09:06:04.629Z,2.13
2022-08-23T09:09:11.730Z,2.10
2022-08-23T09:11:38.787Z,1.60
2022-08-23T09:14:11.493Z,2.30
2022-08-23T09:16:54.268Z,2.03
2022-08-23T09:19:25.074Z,1.50
2022-08-23T09:21:59.461Z,1.70
2022-08-23T09:24:27.106Z,2.10
2022-08-23T09:26:56.513Z,2.00
2022-08-23T09:29:25.749Z,1.70
2022-08-23T09:31:58.353Z,1.43
2022-08-23T09:34:37.097Z,1.67
2022-08-23T09:37:16.336Z,2.27
2022-08-23T09:40:04.814Z,1.50
2022-08-23T09:42:40.516Z,1.80
2022-08-23T09:45:35.324Z,1.47
2022-08-23T09:48:03.718Z,1.80
2022-08-23T09:50:45.528Z,2.03
2022-08-23T09:53:23.315Z,1.80
2022-08-23T09:55:57.779Z,1.43
2022-08-23T09:58:42.095Z,1.77
2022-08-23T10:01:13.536Z,2.00
2022-08-23T10:03:42.731Z,1.63
2022-08-23T10:06:12.362Z,2.17
2022-08-23T10:08:56.223Z,1.70
2022-08-23T10:11:52.118Z,1.97
2022-08-23T10:14:23.471Z,2.10
2022-08-23T10:17:13.230Z,2.00
2022-08-23T10:19:58.478Z,2.20
2022-08-23T10:22:28.512Z,1.90
2022-08-23T10:25:33.415Z,2.40
2022-08-23T10:28:35.764Z,2.27
2022-08-23T10:31:27.026Z,2.20
2022-08-23T10:34:22.111Z,2.00
2022-08-23T10:37:09.559Z,1.87
2022-08-23T10:40:03.091Z,2.27
2022-08-23T10:42:57.325Z,1.80
2022-08-23T10:45:35.727Z,2.00
2022-08-23T10:48:05.627Z,1.60
2022-08-23T10:50:43.179Z,1.97
2022-08-23T10:53:17.052Z,2.10
2022-08-23T10:56:05.141Z,1.77
2022-08-23T10:58:51.984Z,2.03
2022-08-23T11:01:26.408Z,1.50
2022-08-23T11:04:07.557Z,1.80
2022-08-23T11:06:38.222Z,1.87
2022-08-23T11:09:25.859Z,1.63
2022-08-23T11:12:02.678Z,1.60
2022-08-23T11:14:32.407Z,1.90
2022-08-23T11:17:03.072Z,1.33
2022-08-23T11:19:52.688Z,1.60
2022-08-23T11:22:24.645Z,1.67
2022-08-23T11:25:04.539Z,1.40
2022-08-23T11:27:43.089Z,1.40
2022-08-23T11:30:35.088Z,1.53
2022-08-23T11:33:23.007Z,1.70
2022-08-23T11:36:18.027Z,1.60
2022-08-23T11:38:47.931Z,1.53
2022-08-23T11:41:20.342Z,1.33
2022-08-23T11:43:48.350Z,2.10
2022-08-23T11:46:27.566Z,1.60
2022-08-23T11:49:13.402Z,1.60
2022-08-23T11:51:59.344Z,2.23
2022-08-23T11:54:50.090Z,1.90
2022-08-23T11:57:35.043Z,1.70
2022-08-23T12:00:29.210Z,1.77
2022-08-23T12:03:34.073Z,1.73
2022-08-23T12:06:12.623Z,1.70
2022-08-23T12:09:04.543Z,1.23
2022-08-23T12:11:58.024Z,1.97
2022-08-23T12:14:33.358Z,1.53
2022-08-23T12:17:01.052Z,1.50
2022-08-23T12:19:48.841Z,2.07
2022-08-23T12:22:22.550Z,2.03
2022-08-23T12:24:59.642Z,1.57
2022-08-23T12:27:35.270Z,1.50
2022-08-23T12:30:20.353Z,1.30
2022-08-23T12:32:58.141Z,1.33
2022-08-23T12:35:34.668Z,1.53
2022-08-23T12:38:38.840Z,1.60
2022-08-23T12:41:25.363Z,1.30
2022-08-23T12:44:17.135Z,1.57
2022-08-23T12:46:47.218Z,1.00
2022-08-23T12:49:56.191Z,1.40
2022-08-23T12:52:31.375Z,1.43
2022-08-23T12:54:58.805Z,0.97
2022-08-23T12:57:36.220Z,1.30
2022-08-23T13:00:17.008Z,1.40
2022-08-23T13:03:12.447Z,1.10
2022-08-23T13:05:52.807Z,1.10
2022-08-23T13:08:42.307Z,1.30
2022-08-23T13:11:11.119Z,1.20
2022-08-23T13:13:41.217Z,1.40
2022-08-23T13:16:31.737Z,1.30
2022-08-23T13:19:23.940Z,1.37
2022-08-23T13:22:19.478Z,1.27
2022-08-23T13:25:24.711Z,1.00
2022-08-23T13:27:45.955Z,0.80
2022-08-23T13:30:19.780Z,1.23
2022-08-23T13:32:50.752Z,0.90
2022-08-23T13:35:43.417Z,0.80
2022-08-23T13:38:19.968Z,0.95
2022-08-23T13:40:59.470Z,0.68
2022-08-23T13:43:46.769Z,0.90
2022-08-23T13:46:24.842Z,0.90
2022-08-23T13:49:00.971Z,0.93
2022-08-23T13:51:36.992Z,1.00
2022-08-23T13:54:07.717Z,0.63
2022-08-23T13:56:40.252Z,0.75
2022-08-23T13:59:37.103Z,0.95
2022-08-23T14:02:08.659Z,0.80
2022-08-23T14:04:36.041Z,1.10
2022-08-23T14:07:03.099Z,1.00
2022-08-23T14:09:30.118Z,1.20
2022-08-23T14:12:00.030Z,1.05
2022-08-23T14:14:31.371Z,1.27
2022-08-23T14:17:02.647Z,1.50
2022-08-23T14:22:19.627Z,1.13
2022-08-23T14:24:46.497Z,1.00
2022-08-23T14:27:15.891Z,1.00
2022-08-23T14:29:42.873Z,1.17
2022-08-23T14:32:09.745Z,1.60
2022-08-23T14:34:37.023Z,1.70
2022-08-23T14:39:51.500Z,1.67
2022-08-23T14:42:26.539Z,1.20
2022-08-23T14:44:53.405Z,1.70
2022-08-23T14:47:20.260Z,1.70
2022-08-23T14:49:49.015Z,1.57
2022-08-23T14:52:19.416Z,2.03
2022-08-23T14:54:46.321Z,1.43
2022-08-23T14:57:13.192Z,1.47
2022-08-23T14:59:40.028Z,1.50
2022-08-23T15:02:12.071Z,1.40
2022-08-23T15:04:40.114Z,1.70
2022-08-23T15:07:18.662Z,1.70
2022-08-23T15:09:51.876Z,1.57
2022-08-23T15:15:12.292Z,1.80
2022-08-23T15:17:48.087Z,1.50
2022-08-23T15:20:15.399Z,1.50
2022-08-23T15:22:45.262Z,1.70
2022-08-23T15:25:23.246Z,1.80
2022-08-23T15:27:51.175Z,1.50
2022-08-23T15:30:18.791Z,1.70
2022-08-23T15:32:52.623Z,1.90
2022-08-23T15:35:28.853Z,1.77
2022-08-23T15:37:57.253Z,1.40
2022-08-23T15:40:25.553Z,1.57
2022-08-23T15:42:53.150Z,2.00
2022-08-23T15:45:22.626Z,1.43
2022-08-23T15:47:52.875Z,1.90
2022-08-23T15:50:24.813Z,1.40
2022-08-23T15:52:52.585Z,1.70
2022-08-23T15:55:20.107Z,1.90
2022-08-23T15:57:53.114Z,1.90
2022-08-23T16:00:24.276Z,1.40
2022-08-23T16:03:18.748Z,1.63
2022-08-23T16:05:47.210Z,1.70
2022-08-23T16:08:30.731Z,1.30
2022-08-23T16:11:02.030Z,1.20
2022-08-23T16:13:28.843Z,1.50
2022-08-23T16:15:55.772Z,1.77
2022-08-23T16:18:22.624Z,1.43
2022-08-23T16:20:49.751Z,2.20
2022-08-23T16:23:26.643Z,1.83
2022-08-23T16:26:01.193Z,1.53
2022-08-23T16:28:28.434Z,1.53
2022-08-23T16:30:55.351Z,1.70
2022-08-23T16:33:24.645Z,1.30
2022-08-23T16:35:53.676Z,2.20
2022-08-23T16:38:20.555Z,2.20
2022-08-23T16:40:47.953Z,2.20
2022-08-23T16:43:14.816Z,1.80
2022-08-23T16:45:41.775Z,3.33
2022-08-23T16:48:11.772Z,2.23
2022-08-23T16:50:41.915Z,2.70
2022-08-23T16:53:13.459Z,2.00
2022-08-23T16:55:40.764Z,2.43
2022-08-23T16:58:07.999Z,1.70
2022-08-23T17:00:36.868Z,1.70
2022-08-23T17:03:08.588Z,2.33
2022-08-23T17:05:35.733Z,1.70
2022-08-23T17:08:05.150Z,1.70
2022-08-23T17:10:34.562Z,1.83
2022-08-23T17:13:02.294Z,1.70
2022-08-23T17:15:34.500Z,1.80
2022-08-23T17:18:01.720Z,1.87
2022-08-23T17:20:33.751Z,2.50
2022-08-23T17:23:05.782Z,1.70
2022-08-23T17:25:33.685Z,1.50
2022-08-23T17:28:01.022Z,1.60
2022-08-23T17:30:28.764Z,2.03
2022-08-23T17:32:56.522Z,1.73
2022-08-23T17:35:33.653Z,1.97
2022-08-23T17:38:02.833Z,2.50
2022-08-23T17:40:33.068Z,2.70
2022-08-23T17:43:00.771Z,2.50
2022-08-23T17:45:28.213Z,2.00
2022-08-23T17:47:55.079Z,2.13
2022-08-23T17:50:22.067Z,2.80
2022-08-23T17:52:51.184Z,2.27
2022-08-23T17:55:19.071Z,2.00
2022-08-23T17:57:50.234Z,2.00
2022-08-23T18:00:18.863Z,3.20
2022-08-23T18:02:45.737Z,2.47
2022-08-23T18:05:12.751Z,2.80
2022-08-23T18:07:40.046Z,1.80
2022-08-23T18:10:07.641Z,2.50
2022-08-23T18:12:34.956Z,2.87
2022-08-23T18:15:04.793Z,2.57
2022-08-23T18:17:32.937Z,2.50
2022-08-23T18:20:03.007Z,2.03
2022-08-23T18:22:29.851Z,2.17
2022-08-23T18:24:58.971Z,2.70
2022-08-23T18:27:46.626Z,2.53
2022-08-23T18:30:16.297Z,2.03
2022-08-23T18:32:43.750Z,2.90
2022-08-23T18:35:13.626Z,2.33
2022-08-23T18:37:40.766Z,2.10
2022-08-23T18:40:10.110Z,2.03
2022-08-23T18:42:37.691Z,2.10
2022-08-23T18:45:05.491Z,2.20
2022-08-23T18:47:32.337Z,1.63
2022-08-23T18:49:59.353Z,2.00
2022-08-23T18:52:30.970Z,2.10
2022-08-23T18:54:58.283Z,2.10
2022-08-23T18:57:25.401Z,1.63
2022-08-23T18:59:54.766Z,2.30
2022-08-23T19:02:24.322Z,1.97
2022-08-23T19:04:53.621Z,1.57
2022-08-23T19:07:20.507Z,2.20
2022-08-23T19:09:47.375Z,2.50
2022-08-23T19:12:16.880Z,2.40
2022-08-23T19:14:46.887Z,2.33
2022-08-23T19:17:14.088Z,2.00
2022-08-23T19:19:43.153Z,2.13
2022-08-23T19:22:14.526Z,2.80
2022-08-23T19:24:41.491Z,2.10
2022-08-23T19:27:09.106Z,1.70
2022-08-23T19:29:38.492Z,2.10
2022-08-23T19:32:05.786Z,1.90
2022-08-23T19:34:32.701Z,1.97
2022-08-23T19:37:01.495Z,2.10
2022-08-23T19:39:30.055Z,1.73
2022-08-23T19:41:57.194Z,2.20
2022-08-23T19:44:24.224Z,1.90
2022-08-23T19:46:51.395Z,2.57
2022-08-23T19:49:18.306Z,2.60
2022-08-23T19:51:45.203Z,2.10
2022-08-23T19:54:14.669Z,2.33
2022-08-23T19:56:51.725Z,1.97
2022-08-23T19:59:35.918Z,2.87
2022-08-23T20:02:06.796Z,2.63
2022-08-23T20:04:34.070Z,2.37
2022-08-23T20:07:03.356Z,2.80
2022-08-23T20:09:33.185Z,1.97
2022-08-23T20:12:00.974Z,2.23
2022-08-23T20:14:32.969Z,2.13
2022-08-23T20:17:04.559Z,2.77
2022-08-23T20:19:31.549Z,2.20
2022-08-23T20:22:18.324Z,2.70
2022-08-23T20:24:52.010Z,2.67
2022-08-23T20:27:25.310Z,2.17
2022-08-23T20:29:58.861Z,2.50
2022-08-23T20:32:26.466Z,2.10
2022-08-23T20:34:53.708Z,1.80
2022-08-23T20:37:21.835Z,2.67
2022-08-23T20:39:48.823Z,3.10
2022-08-23T20:42:20.540Z,2.30
2022-08-23T20:44:47.395Z,2.10
2022-08-23T20:47:14.244Z,2.40
2022-08-23T20:49:41.148Z,2.33
2022-08-23T20:52:08.433Z,2.57
2022-08-23T20:54:37.862Z,2.50
2022-08-23T20:57:04.770Z,2.60
2022-08-23T20:59:31.549Z,2.50
2022-08-23T21:02:00.823Z,2.93
2022-08-23T21:04:30.354Z,2.37
2022-08-23T21:06:58.213Z,2.10
2022-08-23T21:09:28.909Z,2.97
2022-08-23T21:11:56.826Z,2.27
2022-08-23T21:14:24.028Z,3.73
2022-08-23T21:16:51.032Z,3.13
2022-08-23T21:19:18.842Z,2.00
2022-08-23T21:21:47.793Z,2.20
2022-08-23T21:24:18.749Z,2.60
2022-08-23T21:26:45.543Z,3.20
2022-08-23T21:29:12.472Z,2.90
2022-08-23T21:31:42.019Z,2.50
2022-08-23T21:34:11.851Z,3.10
2022-08-23T21:36:38.636Z,3.10
2022-08-23T21:39:08.536Z,2.70
2022-08-23T21:41:42.146Z,3.33
2022-08-23T21:44:13.021Z,2.33
2022-08-23T21:46:40.998Z,2.90
2022-08-23T21:49:08.134Z,2.33
2022-08-23T21:51:35.818Z,2.50
2022-08-23T21:54:03.262Z,2.40
2022-08-23T21:56:30.191Z,2.33
2022-08-23T21:59:02.037Z,2.87
2022-08-23T22:01:36.375Z,3.77
2022-08-23T22:04:06.755Z,2.40
2022-08-23T22:06:36.377Z,3.20
2022-08-23T22:09:05.769Z,3.10
2022-08-23T22:11:34.601Z,2.80
2022-08-23T22:14:01.487Z,2.87
2022-08-23T22:16:28.363Z,3.10
2022-08-23T22:18:55.279Z,2.77
2022-08-23T22:21:22.680Z,2.80
2022-08-23T22:23:50.032Z,2.93
2022-08-23T22:26:16.952Z,2.27
2022-08-23T22:28:45.006Z,2.23
2022-08-23T22:31:13.728Z,2.57
2022-08-23T22:33:45.539Z,2.33
2022-08-23T22:36:16.515Z,3.20
2022-08-23T22:38:44.531Z,2.77
2022-08-23T22:41:15.718Z,2.90
2022-08-23T22:43:45.669Z,3.20
2022-08-23T22:46:13.579Z,3.10
2022-08-23T22:48:40.925Z,2.80
2022-08-23T22:51:07.713Z,2.67
2022-08-23T22:53:40.474Z,3.03
2022-08-23T22:56:10.124Z,3.10
2022-08-23T22:58:37.124Z,2.93
2022-08-23T23:01:09.927Z,3.90
2022-08-23T23:03:42.596Z,2.70
2022-08-23T23:06:09.628Z,2.70
2022-08-23T23:08:36.966Z,2.80
2022-08-23T23:11:08.719Z,3.27
2022-08-23T23:13:40.329Z,3.20
2022-08-23T23:16:13.552Z,2.57
2022-08-23T23:19:03.940Z,3.33
2022-08-23T23:21:52.735Z,2.90
2022-08-23T23:24:33.066Z,2.87
2022-08-23T23:27:00.897Z,3.10
2022-08-23T23:29:27.937Z,2.80
2022-08-23T23:31:55.770Z,3.10
2022-08-23T23:34:23.896Z,3.40
2022-08-23T23:36:55.837Z,2.90
2022-08-23T23:39:23.317Z,2.87
2022-08-23T23:41:50.652Z,3.50
2022-08-23T23:44:22.543Z,3.50
2022-08-23T23:46:57.752Z,3.20
2022-08-23T23:49:29.710Z,2.60
2022-08-23T23:52:07.282Z,2.77
2022-08-23T23:54:35.751Z,3.03
2022-08-23T23:57:06.947Z,2.97
2022-08-23T23:59:34.167Z,3.17
